Aeroporto :
LOGIN :

Iscrizione | Disclaimer

   EN    FR    IT 

 










Sommario :    VFR   VFR Marginale   IFR   IFR Intensivo   IFR Molto Intensivo
Visibilità : 
Base nubi : 
>= 8 km
>= 3000ft
5 / 8 km
1000 / 3000 ft
1500m / 5 km
500 / 1000 ft
800 / 1500m
200 / 500 ft
< 800m
< 200 ft
Simboli :   Temporali  Nebbia  Neve Forte  Precipitazioni Forti  Vento > 20 kt
SIGMETs :   Varie  Temporali  Ghiacco  Turbolenza  Onda orograficha  Ceneri Vulcaniche






- Altitudine del aeroporto : 423 ft
- Codice IATA : PIS


LFBI - Poitiers

ULTIMO METAR :
  • 250000Z AUTO 18014KT 9999 OVC027 10/06 Q1015 TEMPO BKN010

METARs OBSOLETI :
  • 242330Z AUTO 18014KT 9999 OVC028 10/06 Q1015 TEMPO BKN012
  • 242300Z AUTO 18012KT 9999 OVC026 09/05 Q1015 BECMG BKN012
  • 242230Z AUTO 18011KT 9999 OVC025 09/05 Q1015 BECMG BKN012
  • 242200Z AUTO 17008KT 9999 BKN027 09/04 Q1015 BECMG BKN012
  • 242130Z AUTO 18009KT 9999 SCT030 08/04 Q1016 BECMG BKN012
  • 242100Z AUTO 18010KT 9999 FEW028 09/04 Q1016 BECMG BKN012

TAF TAF LFBI
Valido dal 25 a 00 ore il 26 a 00 ore UTC


242300Z 2500/2524 20012KT 9999 BKN020
TEMPO 2500/2505 BKN010
BECMG 2516/2518 10004KT
TEMPO 2521/2524 2000 MIFG



MetMap, La meteo Aeronautica in un colpo d'occhio ! - Copyright ORBIFLY Dicembre 2007 - Disclaimer

ORBIFLY MET'MAP TEAM :

Programmazione e sviluppo : Alexandra Zaïnal
Concezione : Baudouin d'Aumeries
Aiuto per la programmazione : Marc-Olivier Méhu
Supporto tecnico e logistico : Manuel Goepfert
Aiuto per la traduzione : Arnaldo La Scala

Contatto : metmap@orbifly.com




FONTI E CREDITI :

   NOAA